AirNav   Pilot Hours Calculator
 
 957 users online  

MN89 Aerovilla Airport
Perham, Minnesota, USA

GOING TO PERHAM?


FAA INFORMATION EFFECTIVE 25 MARCH 2021

Location

FAA Identifier: MN89
Lat/Long: 46-36-59.8540N 095-39-01.1570W
46-36.997567N 095-39.019283W
46.6166261,-95.6503214
(estimated)
Elevation: 1374 ft. / 418.8 m (surveyed)
Variation: 05E (1985)
From city: 3 miles NW of PERHAM, MN
Time zone: UTC -5 (UTC -6 during Standard Time)
Zip code: 56573

Airport Operations

Airport use: Private use. Permission required prior to landing
Activation date: 10/1971
Control tower: no
ARTCC: MINNEAPOLIS CENTER
FSS: PRINCETON FLIGHT SERVICE STATION
Attendance: UNATNDD
Wind indicator: yes
Segmented circle: no

Airport Communications

WX AWOS-3 at DTL (16 nm NW): 119.075 (218-847-8626)

Nearby radio navigation aids

VOR radial/distance  VOR name  Freq  Var
DTLr140/15.9DETROIT LAKES VOR/DME111.2002E
FFMr042/28.7FERGUS FALLS VOR/DME110.4005E

Airport Services

Airframe service: NONE
Powerplant service: NONE

Runway Information

Runway E/W

Dimensions: 3000 x 150 ft. / 914 x 46 m
Surface: turf
RUNWAY E  RUNWAY W
Traffic pattern: leftleft
Obstructions: plinesnone

Airport Ownership and Management from official FAA records

Ownership: Privately-owned
Owner: MARION R GILL
40122 AEROVILLA RD.
PERHAM, MN 56573
Phone 218-346-7295
Manager: MARION R. GILL
40122 AEROVILLA RD.
PERHAM, MN 56573
Phone 218-346-7295

Airport Operational Statistics

Aircraft based on the field: 1
Single engine airplanes: 1
    

Additional Remarks

FOR CD CTC MINNEAPOLIS ARTCC AT 651-463-5588.

Instrument Procedures

There are no published instrument procedures at MN89.

Some nearby airports with instrument procedures:

16D - Perham Municipal Airport (2 nm E)
KDTL - Detroit Lakes Airport-Wething Field (16 nm NW)
KADC - Wadena Municipal Airport (21 nm SE)
KFFM - Fergus Falls Municipal Airport-Einar Mickelson Field (29 nm SW)
KPKD - Park Rapids Municipal Airport-Konshok Field (29 nm NE)
 
Loc | Ops | Rwys | IFR | FBO | Links
Com | Nav | Svcs | Stats | Notes
Area around MN89 (Aerovilla Airport)
 
Road maps at: MapQuest Bing Google
 
Aerial photo
No photo
 
Sectional chart

 
Airport distance calculator
Flying to Aerovilla Airport? Find the distance to fly.

From to MN89

Sunrise and sunset
Times for 11-Apr-2021
 Local
(UTC-5)
 Zulu
(UTC)
Morning civil twilight06:1211:12
Sunrise06:4411:44
Sunset20:0401:04
Evening civil twilight20:3501:35

Current date and time
Zulu (UTC)  12-Apr-2021 02:04:43
Local (UTC-5)  11-Apr-2021 21:04:43
 
METAR
KDTL 
15nm NW 
120155Z AUTO 36007KT 10SM CLR 07/04 A2966 RMK AO2
KADC 
21nm SE 
120155Z AUTO 00000KT 10SM 08/04 A2966 RMK AO2
KPKD 
29nm NE 
120153Z AUTO 02005KT 10SM OVC043 08/03 A2966 RMK AO2 SLP055 T00830028
KFFM 
29nm SW 
120155Z AUTO 00000KT 10SM CLR 08/03 A2964 RMK AO2
TAF
KAXN 
46nm S 
112059Z 1121/1218 01009KT P6SM SCT025 FM120600 33008KT P6SM OVC015 FM121000 31012G19KT P6SM OVC009 FM121200 30015G23KT 5SM -SHRA BR OVC008
NOTAMs
Click for the latest NOTAMs
NOTAMs are issued by the DoD/FAA and will open in a separate window not controlled by AirNav.

 

 
 

Would you like to see your business listed on this page?

 If your business provides an interesting product or service to pilots, flight crews, aircraft, or users of the Aerovilla Airport, you should consider listing it here.  To start the listing process, click on the button below
 
Add a business
 

Other Pages about Aerovilla Airport

Update a link
 
Copyright © AirNav, LLC. All rights reserved. Privacy Policy  Contact